METAR Data
IDs: Format: Raw Decoded Include TAF

Data at: 1111 UTC 26 Sep 2018

K8A0 261055Z AUTO 15006KT 2 1/2SM +VCTSRA SCT005 BKN011 OVC035 22/22 A3007 RMK AO2 P0021 LTG DSNT S AND NW
K8A0 261035Z AUTO 19004KT 4SM TSRA SCT009 BKN031 OVC065 22/22 A3007 RMK AO2 P0006 LTG DSNT N NE AND S
K8A0 261015Z AUTO 00000KT 5SM DZ SCT016 BKN031 OVC090 22/22 A3007 RMK AO2 P0002 LTG DSNT N AND NW
K8A0 260955Z AUTO 00000KT 10SM VCTS SCT009 BKN080 OVC100 22/22 A3007 RMK AO2 LTG DSNT N
K8A0 260935Z AUTO 00000KT 10SM -DZ SCT011 OVC100 22/22 A3006 RMK AO2
K8A0 260915Z AUTO 18004KT 10SM DZ SCT009 BKN014 OVC100 22/22 A3007 RMK AO2 LTG DSNT NE AND NW
K8A0 260855Z AUTO 18003KT 7SM RA BKN011 BKN014 OVC100 22/22 A3007 RMK AO2
K8A0 260835Z AUTO 17003KT 10SM SCT009 BKN026 OVC110 22/22 A3007 RMK AO2 LTG DSNT W
K8A0 260815Z AUTO 18004KT 10SM SCT009 BKN050 OVC110 22/22 A3007 RMK AO2
K8A0 260755Z AUTO 16003KT 10SM SCT047 BKN055 OVC075 22/22 A3008 RMK AO2 LTG DSNT W
K8A0 260735Z AUTO 13003KT 10SM SCT009 BKN055 OVC075 22/22 A3008 RMK AO2 LTG DSNT E AND NW
K8A0 260715Z AUTO 15003KT 10SM SCT009 BKN014 BKN075 22/22 A3009 RMK AO2 LTG DSNT NE AND NW
K8A0 260655Z AUTO 16005KT 10SM SCT012 SCT020 BKN110 22/22 A3009 RMK AO2 LTG DSNT NW
K8A0 260635Z AUTO 00000KT 10SM SCT085 OVC110 22/22 A3009 RMK AO2 LTG DSNT NE AND NW
K8A0 260615Z AUTO 17004KT 10SM SCT015 SCT090 OVC100 22/22 A3009 RMK AO2 LTG DSNT E AND NW
K8A0 260555Z AUTO 17004KT 10SM SCT017 SCT065 OVC090 22/22 A3009 RMK AO2 LTG DSNT NW
K8A0 260535Z AUTO 00000KT 10SM SCT070 OVC100 22/22 A3010 RMK AO2 LTG DSNT NE AND NW
K8A0 260515Z AUTO 00000KT 10SM SCT019 SCT070 OVC090 22/22 A3010 RMK AO2
K8A0 260455Z AUTO 19003KT 10SM SCT019 SCT060 BKN090 22/22 A3011 RMK AO2 P0001 LTG DSNT N AND NW
K8A0 260435Z AUTO 18003KT 10SM SCT080 22/22 A3011 RMK AO2 LTG DSNT NE
K8A0 260415Z AUTO 17003KT 10SM -RA SCT035 SCT048 SCT060 22/22 A3011 RMK AO2 LTG DSNT NE
K8A0 260355Z AUTO 19003KT 7SM -RA SCT035 SCT048 BKN120 22/22 A3011 RMK AO2 P0003 LTG DSNT NE
K8A0 260335Z AUTO 19004KT 10SM VCTSRA SCT085 OVC110 22/22 A3011 RMK AO2 P0001 LTG DSNT SW AND W
K8A0 260315Z AUTO 17005KT 10SM -TSRA SCT080 BKN095 OVC120 22/22 A3012 RMK AO2 LTG DSNT SW
K8A0 260255Z AUTO 15004KT 5SM -RA SCT030 BKN075 OVC120 22/22 A3011 RMK AO2 P0003 LTG DSNT NE AND SW
K8A0 260235Z AUTO 20004KT 10SM VCTSRA SCT007 BKN033 OVC120 22/22 A3012 RMK AO2 P0001 LTG DSNT NE
K8A0 260215Z AUTO 26006KT 10SM -TSRA SCT007 BKN028 OVC070 23/23 A3012 RMK AO2 LTG DSNT NE AND NW
K8A0 260155Z AUTO 26005KT 4SM VCTSRA SCT023 BKN033 OVC065 23/23 A3012 RMK AO2 P0013 LTG DSNT SW THRU NE
K8A0 260135Z AUTO 27011KT 10SM TS BKN031 BKN043 BKN060 24/23 A3011 RMK AO2 LTG DSNT ALQS
K8A0 260115Z AUTO 20003KT 10SM VCTS SCT038 BKN050 BKN070 26/23 A3008 RMK AO2 LTG DSNT SW THRU N
K8A0 260055Z AUTO 19003KT 10SM VCTS BKN060 BKN070 BKN080 26/23 A3008 RMK AO2 LTG DSNT W THRU NE
K8A0 260035Z AUTO 17003KT 10SM VCTS BKN070 BKN080 26/23 A3007 RMK AO2 LTG DSNT SW THRU N
K8A0 260015Z AUTO 16003KT 10SM SCT041 SCT060 SCT090 25/23 A3004 RMK AO2 LTG DSNT W THRU N
K8A0 252355Z AUTO 17005KT 10SM SCT041 SCT060 SCT090 26/23 A3005 RMK AO2 LTG DSNT N AND NW
K8A0 252335Z AUTO 15003KT 10SM TS CLR 26/23 A3003 RMK AO2 LTG DSNT W THRU N
K8A0 252315Z AUTO 16004KT 10SM SCT085 27/23 A3003 RMK AO2 LTG DSNT W AND NW
K8A0 252255Z AUTO 15005KT 10SM SCT085 27/23 A3004 RMK AO2 LTG DSNT W AND NW
K8A0 252235Z AUTO 14007KT 10SM VCTS BKN085 28/23 A3003 RMK AO2 LTG DSNT NW
K8A0 252215Z AUTO 14004KT 10SM SCT040 SCT046 BKN110 28/23 A3002 RMK AO2 LTG DSNT NW
K8A0 252155Z AUTO 15007KT 10SM SCT040 SCT046 BKN080 28/23 A3003 RMK AO2 LTG DSNT NW
K8A0 252135Z AUTO 16008KT 10SM SCT040 SCT045 SCT050 28/23 A3004 RMK AO2
K8A0 252115Z AUTO 18008KT 10SM BKN040 29/24 A3004 RMK AO2
K8A0 252055Z AUTO 19008KT 10SM SCT037 SCT044 BKN085 30/23 A3004 RMK AO2
K8A0 252035Z AUTO 17008KT 10SM SCT037 BKN055 OVC085 28/25 A3005 RMK AO2
K8A0 252015Z AUTO 18006KT 10SM SCT037 BKN055 OVC080 28/23 A3006 RMK AO2
K8A0 251955Z AUTO 18008KT 10SM SCT035 SCT044 BKN070 29/23 A3006 RMK AO2
K8A0 251935Z AUTO 19010G16KT 10SM SCT035 BKN044 BKN065 30/23 A3006 RMK AO2
K8A0 251915Z AUTO 16008G15KT 10SM SCT035 SCT042 SCT050 29/24 A3007 RMK AO2
K8A0 251855Z AUTO 16010KT 10SM SCT120 30/24 A3008 RMK AO2
K8A0 251835Z AUTO 18011G15KT 10SM SCT033 SCT041 SCT047 28/23 A3009 RMK AO2
K8A0 251815Z AUTO 19008KT 10SM SCT027 SCT035 BKN042 28/24 A3011 RMK AO2
K8A0 251755Z AUTO 17004KT 10SM SCT027 BKN038 BKN044 27/24 A3012 RMK AO2
K8A0 251735Z AUTO 17006KT 10SM SCT027 SCT034 BKN043 27/24 A3012 RMK AO2
K8A0 251715Z AUTO 16007KT 129V189 10SM BKN027 BKN035 BKN043 27/24 A3012 RMK AO2
K8A0 251655Z AUTO 19007G14KT 159V219 10SM BKN025 BKN029 BKN036 27/24 A3012 RMK AO2
K8A0 251635Z AUTO 16009G18KT 10SM BKN022 BKN031 OVC048 27/24 A3013 RMK AO2
K8A0 251615Z AUTO 17011G17KT 139V199 10SM BKN021 26/24 A3014 RMK AO2
K8A0 251555Z AUTO 16010G16KT 10SM SCT016 BKN024 BKN031 26/24 A3014 RMK AO2
K8A0 251535Z AUTO 16010G16KT 10SM SCT014 BKN020 BKN025 25/24 A3014 RMK AO2
K8A0 251515Z AUTO 17011G15KT 10SM BKN013 BKN023 25/25 A3014 RMK AO2
K8A0 251455Z AUTO 15008KT 10SM SCT009 OVC017 24/24 A3014 RMK AO2
K8A0 251435Z AUTO 16007KT 10SM BKN009 OVC017 23/23 A3014 RMK AO2
K8A0 251415Z AUTO 17007KT 10SM OVC007 23/23 A3014 RMK AO2
K8A0 251355Z AUTO 16006KT 10SM OVC007 23/23 A3014 RMK AO2
K8A0 251335Z AUTO 16006KT 10SM OVC007 22/22 A3014 RMK AO2
K8A0 251315Z AUTO 14005KT 10SM OVC007 22/22 A3014 RMK AO2
K8A0 251255Z AUTO 14007KT 119V179 10SM OVC007 22/22 A3014 RMK AO2
K8A0 251235Z AUTO 14004KT 10SM OVC005 22/22 A3014 RMK AO2
K8A0 251215Z AUTO 13003KT 10SM OVC005 22/22 A3013 RMK AO2
K8A0 251155Z AUTO 15005KT 10SM OVC005 22/22 A3013 RMK AO2
K8A0 251135Z AUTO 15005KT 10SM OVC007 21/21 A3012 RMK AO2
K8A0 251115Z AUTO 15005KT 10SM BKN007 OVC010 21/21 A3012 RMK AO2
K8A0 251055Z AUTO 14003KT 10SM OVC007 21/21 A3012 RMK AO2
K8A0 251035Z AUTO 13003KT 10SM BKN009 OVC013 21/21 A3011 RMK AO2
K8A0 251015Z AUTO 13004KT 10SM BKN006 OVC011 21/21 A3012 RMK AO2
K8A0 250955Z AUTO 00000KT 10SM SCT004 BKN008 OVC013 21/21 A3011 RMK AO2 LTG DSNT NW
K8A0 250935Z AUTO 13004KT 10SM SCT004 BKN010 OVC100 21/21 A3010 RMK AO2 LTG DSNT NW
K8A0 250915Z AUTO 11004KT 10SM SCT004 OVC100 21/21 A3010 RMK AO2
K8A0 250855Z AUTO 11006KT 10SM SCT004 SCT012 BKN100 21/21 A3009 RMK AO2
K8A0 250835Z AUTO 12004KT 10SM SCT008 SCT014 BKN090 21/21 A3010 RMK AO2
K8A0 250815Z AUTO 10004KT 10SM SCT011 BKN030 OVC090 21/21 A3010 RMK AO2
K8A0 250755Z AUTO 11004KT 10SM SCT013 BKN030 OVC041 21/21 A3010 RMK AO2
K8A0 250730Z AUTO 11003KT 10SM -DZ SCT015 BKN036 OVC045 21/21 A3011 RMK AO2
K8A0 250715Z AUTO 10003KT 10SM SCT020 SCT030 BKN037 21/21 A3011 RMK AO2
K8A0 250655Z AUTO 10005KT 10SM SCT021 SCT032 BKN050 21/21 A3011 RMK AO2
K8A0 250635Z AUTO 11004KT 10SM SCT032 SCT038 BKN044 21/21 A3011 RMK AO2 LTG DSNT SE
K8A0 250615Z AUTO 11004KT 10SM -DZ SCT033 BKN041 BKN060 21/21 A3011 RMK AO2
K8A0 250555Z AUTO 11003KT 10SM -RA SCT037 SCT045 SCT060 21/21 A3011 RMK AO2 P0001 LTG DSNT SE
K8A0 250535Z AUTO 10005KT 10SM -RA CLR 21/21 A3011 RMK AO2
K8A0 250515Z AUTO 11005KT 10SM CLR 21/21 A3012 RMK AO2
K8A0 250455Z AUTO 11003KT 10SM SCT005 SCT009 SCT043 21/21 A3012 RMK AO2
K8A0 250435Z AUTO 11005KT 10SM SCT005 SCT009 21/21 A3012 RMK AO2
K8A0 250415Z AUTO 11006KT 10SM SCT005 SCT075 SCT120 21/21 A3012 RMK AO2 LTG DSNT SE
K8A0 250355Z AUTO 12005KT 10SM SCT120 21/21 A3012 RMK AO2
K8A0 250335Z AUTO 12004KT 10SM BKN120 21/21 A3010 RMK AO2 LTG DSNT SE
K8A0 250315Z AUTO 14003KT 10SM SCT120 21/21 A3010 RMK AO2
K8A0 250255Z AUTO 14004KT 10SM -DZ CLR 21/21 A3009 RMK AO2 P0004
K8A0 250235Z AUTO 16005KT 10SM -RA SCT049 SCT060 SCT080 21/21 A3008 RMK AO2 P0004 LTG DSNT SE
K8A0 250215Z AUTO 14004KT 7SM -RA BKN049 BKN055 BKN075 21/21 A3009 RMK AO2 P0002 LTG DSNT SE
K8A0 250155Z AUTO 16004KT 4SM RA OVC055 21/21 A3008 RMK AO2 P0008 LTG DSNT E AND SE
K8A0 250135Z AUTO 17006KT 7SM RA SCT037 SCT049 OVC060 21/21 A3008 RMK AO2 P0004 LTG DSNT E SE AND NW
K8A0 250115Z AUTO 16005KT 7SM -RA SCT046 BKN070 BKN080 21/21 A3008 RMK AO2 P0002 LTG DSNT E AND SE
K8A0 250055Z AUTO 18003KT 10SM -RA SCT015 BKN050 OVC075 21/21 A3008 RMK AO2 P0008 LTG DSNT E AND SE
K8A0 250035Z AUTO 19006G16KT 7SM -VCTSRA SCT011 BKN031 OVC050 21/21 A3009 RMK AO2 P0007 LTG DSNT ALQS
K8A0 250015Z AUTO 17015G20KT 7SM TSRA SCT008 BKN018 OVC046 22/22 A3007 RMK AO2 P0002 LTG DSNT NE SE AND W
K8A0 242355Z AUTO 12008KT 079V149 4SM +RA SCT010 SCT024 BKN031 22/22 A3006 RMK AO2 P0011 LTG DSNT SE THRU NW
K8A0 242335Z AUTO 09003KT 7SM -RA SCT031 SCT041 BKN050 22/22 A3003 RMK AO2 P0001 LTG DSNT ALQS
K8A0 242315Z AUTO 00000KT 10SM VCTSRA SCT065 BKN110 22/22 A3003 RMK AO2 LTG DSNT NE SW AND NW